KELN/ELN METAR and TAF weather

Enter ICAO airport designator
Station Type Date Time Source
KELN METAR 2019/08/19 21:53 UTC NOAA

KELN 192153Z AUTO 33020G23KT 10SM CLR 31/04 A2989 RMK AO2 PK WND 31027/2054 SLP107 T03110044


Station Type Date Time Source
KELN Decoded METAR 2019/08/19 21:53 UTC NOAA

ELLENSBURG BOWERS FIELD, WA, United States (KELN) 47-02N 120-32W 519M
Aug 19, 2019 - 05:53 PM EDT / 2019.08.19 2153 UTC
Wind: from the NNW (330 degrees) at 23 MPH (20 KT) gusting to 26 MPH (23 KT):0
Visibility: 10 mile(s):0
Sky conditions: clear
Temperature: 88.0 F (31.1 C)
Dew Point: 39.9 F (4.4 C)
Relative Humidity: 18%
Pressure (altimeter): 29.89 in. Hg (1012 hPa)
ob: KELN 192153Z AUTO 33020G23KT 10SM CLR 31/04 A2989 RMK AO2 PK WND 31027/2054 SLP107 T03110044
cycle: 22

Station Type Date Time Source
KELN TAF UTC NOAA

Error!

Example: see airport list